createdAt,value
2023-02-26T00:00:10.497Z,1.35
2023-02-26T00:02:37.711Z,2.20
2023-02-26T00:05:05.513Z,2.93
2023-02-26T00:07:33.074Z,3.63
2023-02-26T00:10:02.415Z,1.20
2023-02-26T00:12:30.099Z,1.02
2023-02-26T00:14:57.610Z,4.35
2023-02-26T00:17:27.533Z,3.00
2023-02-26T00:19:54.847Z,2.95
2023-02-26T00:22:22.110Z,3.20
2023-02-26T00:24:49.339Z,2.70
2023-02-26T00:27:16.551Z,1.70
2023-02-26T00:29:43.954Z,1.50
2023-02-26T00:32:11.271Z,0.70
2023-02-26T00:34:39.755Z,1.75
2023-02-26T00:37:12.689Z,1.55
2023-02-26T00:39:48.636Z,1.80
2023-02-26T00:42:16.117Z,1.63
2023-02-26T00:44:43.495Z,2.15
2023-02-26T00:47:14.853Z,2.55
2023-02-26T00:49:48.487Z,1.45
2023-02-26T00:52:16.275Z,0.90
2023-02-26T00:54:43.412Z,3.63
2023-02-26T00:57:10.586Z,2.60
2023-02-26T00:59:37.758Z,1.77
2023-02-26T01:02:04.932Z,3.95
2023-02-26T01:04:32.298Z,2.22
2023-02-26T01:06:59.596Z,2.72
2023-02-26T01:09:27.738Z,1.85
2023-02-26T01:11:55.570Z,3.92
2023-02-26T01:14:23.063Z,1.35
2023-02-26T01:17:09.073Z,0.65
2023-02-26T01:19:42.572Z,0.88
2023-02-26T01:22:18.639Z,2.22
2023-02-26T01:24:45.837Z,2.22
2023-02-26T01:27:13.048Z,1.30
2023-02-26T01:29:40.278Z,3.58
2023-02-26T01:32:09.595Z,2.40
2023-02-26T01:34:39.635Z,2.25
2023-02-26T01:37:15.019Z,1.55
2023-02-26T01:39:47.936Z,1.02
2023-02-26T01:42:19.211Z,2.33
2023-02-26T01:45:05.695Z,2.42
2023-02-26T01:47:44.799Z,0.85
2023-02-26T01:50:16.527Z,1.27
2023-02-26T01:52:50.222Z,2.88
2023-02-26T01:55:19.034Z,1.08
2023-02-26T01:57:46.170Z,1.20
2023-02-26T02:00:13.650Z,1.33
2023-02-26T02:02:41.005Z,1.50
2023-02-26T02:05:10.921Z,0.82
2023-02-26T02:07:38.060Z,0.60
2023-02-26T02:10:05.417Z,2.13
2023-02-26T02:12:36.589Z,1.65
2023-02-26T02:15:06.852Z,2.42
2023-02-26T02:17:37.041Z,1.60
2023-02-26T02:20:19.290Z,1.05
2023-02-26T02:22:54.347Z,2.47
2023-02-26T02:25:39.865Z,1.40
2023-02-26T02:28:14.240Z,1.00
2023-02-26T02:30:50.642Z,2.22
2023-02-26T02:33:19.907Z,1.67
2023-02-26T02:35:49.466Z,3.58
2023-02-26T02:38:24.922Z,2.30
2023-02-26T02:40:53.705Z,1.23
2023-02-26T02:43:21.943Z,1.80
2023-02-26T02:45:49.283Z,2.75
2023-02-26T02:48:19.595Z,1.00
2023-02-26T02:50:48.412Z,1.13
2023-02-26T02:53:25.446Z,2.33
2023-02-26T02:55:57.265Z,2.20
2023-02-26T02:58:26.723Z,1.83
2023-02-26T03:00:55.581Z,0.77
2023-02-26T03:03:28.693Z,1.80
2023-02-26T03:05:55.859Z,1.23
2023-02-26T03:08:24.047Z,1.73
2023-02-26T03:10:51.331Z,2.83
2023-02-26T03:13:19.172Z,1.17
2023-02-26T03:16:05.301Z,2.33
2023-02-26T03:18:37.249Z,1.95
2023-02-26T03:21:15.814Z,1.88
2023-02-26T03:24:06.218Z,2.25
2023-02-26T03:26:39.491Z,2.40
2023-02-26T03:29:11.530Z,1.55
2023-02-26T03:31:57.490Z,1.92
2023-02-26T03:34:28.729Z,2.08
2023-02-26T03:36:57.982Z,0.73
2023-02-26T03:39:29.513Z,2.38
2023-02-26T03:42:07.634Z,0.50
2023-02-26T03:44:36.102Z,1.27
2023-02-26T03:47:08.480Z,2.42
2023-02-26T03:49:46.184Z,3.42
2023-02-26T03:52:13.361Z,0.70
2023-02-26T03:54:44.692Z,1.40
2023-02-26T03:57:11.868Z,2.42
2023-02-26T03:59:39.019Z,3.83
2023-02-26T04:02:08.240Z,2.30
2023-02-26T04:04:36.637Z,0.90
2023-02-26T04:07:03.982Z,1.73
2023-02-26T04:09:31.170Z,1.63
2023-02-26T04:11:58.360Z,1.20
2023-02-26T04:14:25.532Z,2.55
2023-02-26T04:16:52.752Z,1.25
2023-02-26T04:19:19.909Z,2.08
2023-02-26T04:21:47.253Z,2.22
2023-02-26T04:24:14.395Z,2.22
2023-02-26T04:26:41.583Z,1.38
2023-02-26T04:29:08.717Z,2.10
2023-02-26T04:31:36.044Z,1.38
2023-02-26T04:34:03.380Z,1.50
2023-02-26T04:36:30.570Z,1.90
2023-02-26T04:38:57.760Z,4.00
2023-02-26T04:41:24.977Z,2.40
2023-02-26T04:43:52.139Z,1.40
2023-02-26T04:46:19.368Z,3.50
2023-02-26T04:48:46.532Z,1.90
2023-02-26T04:51:13.730Z,1.20
2023-02-26T04:53:40.867Z,1.08
2023-02-26T04:56:08.114Z,3.97
2023-02-26T04:58:35.288Z,1.60
2023-02-26T05:01:02.432Z,0.88
2023-02-26T05:03:29.691Z,1.05
2023-02-26T05:05:56.847Z,1.77
2023-02-26T05:08:24.186Z,1.70
2023-02-26T05:10:52.154Z,3.58
2023-02-26T05:13:19.706Z,2.70
2023-02-26T05:15:46.990Z,1.35
2023-02-26T05:18:14.214Z,2.67
2023-02-26T05:20:41.416Z,1.55
2023-02-26T05:23:08.567Z,1.63
2023-02-26T05:25:35.701Z,1.70
2023-02-26T05:28:02.868Z,3.38
2023-02-26T05:30:30.026Z,1.83
2023-02-26T05:32:57.195Z,3.50
2023-02-26T05:35:24.373Z,2.33
2023-02-26T05:37:51.521Z,3.03
2023-02-26T05:40:18.779Z,1.67
2023-02-26T05:42:45.967Z,1.20
2023-02-26T05:45:13.168Z,3.53
2023-02-26T05:47:40.366Z,1.77
2023-02-26T05:50:07.732Z,1.95
2023-02-26T05:52:35.038Z,2.00
2023-02-26T05:55:02.200Z,1.48
2023-02-26T05:57:29.420Z,2.10
2023-02-26T05:59:56.559Z,3.10
2023-02-26T06:02:23.703Z,2.38
2023-02-26T06:04:50.904Z,0.50
2023-02-26T06:07:18.120Z,1.38
2023-02-26T06:09:45.277Z,1.70
2023-02-26T06:12:14.316Z,0.70
2023-02-26T06:14:41.481Z,2.90
2023-02-26T06:17:08.781Z,2.03
2023-02-26T06:19:35.927Z,1.02
2023-02-26T06:22:03.102Z,1.15
2023-02-26T06:24:30.320Z,1.73
2023-02-26T06:26:57.534Z,1.50
2023-02-26T06:29:24.735Z,1.83
2023-02-26T06:31:52.053Z,2.45
2023-02-26T06:34:19.302Z,1.42
2023-02-26T06:36:46.473Z,1.83
2023-02-26T06:39:13.920Z,2.45
2023-02-26T06:41:41.064Z,1.33
2023-02-26T06:44:08.249Z,1.17
2023-02-26T06:46:35.397Z,2.80
2023-02-26T06:49:02.561Z,2.38
2023-02-26T06:51:30.878Z,1.10
2023-02-26T06:53:58.224Z,1.90
2023-02-26T06:56:25.928Z,2.03
2023-02-26T06:58:53.510Z,0.93
2023-02-26T07:01:20.776Z,1.45
2023-02-26T07:03:47.988Z,1.20
2023-02-26T07:06:26.837Z,3.08
2023-02-26T07:08:54.850Z,3.00
2023-02-26T07:11:22.178Z,3.05
2023-02-26T07:13:49.368Z,1.20
2023-02-26T07:16:16.565Z,1.73
2023-02-26T07:18:43.732Z,1.25
2023-02-26T07:21:10.896Z,1.25
2023-02-26T07:23:38.067Z,2.33
2023-02-26T07:26:05.282Z,2.10
2023-02-26T07:28:32.449Z,1.30
2023-02-26T07:30:59.691Z,2.23
2023-02-26T07:33:28.462Z,2.30
2023-02-26T07:35:55.601Z,2.45
2023-02-26T07:38:22.751Z,2.13
2023-02-26T07:40:49.957Z,0.88
2023-02-26T07:43:17.106Z,1.92
2023-02-26T07:45:44.375Z,1.70
2023-02-26T07:48:11.536Z,1.67
2023-02-26T07:50:38.741Z,1.65
2023-02-26T07:53:05.897Z,2.47
2023-02-26T07:55:33.100Z,2.97
2023-02-26T07:58:00.376Z,4.25
2023-02-26T08:00:27.513Z,1.17
2023-02-26T08:02:54.733Z,2.25
2023-02-26T08:05:22.196Z,5.03
2023-02-26T08:07:49.340Z,1.48
2023-02-26T08:10:16.472Z,2.50
2023-02-26T08:12:43.692Z,1.48
2023-02-26T08:15:13.230Z,0.90
2023-02-26T08:17:40.730Z,1.42
2023-02-26T08:20:08.700Z,1.42
2023-02-26T08:22:35.857Z,1.17
2023-02-26T08:25:03.052Z,3.28
2023-02-26T08:27:30.231Z,1.85
2023-02-26T08:29:57.444Z,1.88
2023-02-26T08:32:27.012Z,3.50
2023-02-26T08:34:54.254Z,2.03
2023-02-26T08:37:24.223Z,4.55
2023-02-26T08:39:51.880Z,3.70
2023-02-26T08:42:21.071Z,2.25
2023-02-26T08:44:48.333Z,1.27
2023-02-26T08:47:21.785Z,2.22
2023-02-26T08:49:55.245Z,2.20
2023-02-26T08:52:22.399Z,2.85
2023-02-26T08:54:49.573Z,2.17
2023-02-26T08:57:16.790Z,1.73
2023-02-26T08:59:44.004Z,1.63
2023-02-26T09:02:11.825Z,2.10
2023-02-26T09:04:39.040Z,1.20
2023-02-26T09:07:06.222Z,1.23
2023-02-26T09:09:33.372Z,2.03
2023-02-26T09:12:00.576Z,2.30
2023-02-26T09:14:27.791Z,1.35
2023-02-26T09:16:54.930Z,1.13
2023-02-26T09:19:22.098Z,1.75
2023-02-26T09:21:49.340Z,2.20
2023-02-26T09:24:16.474Z,2.47
2023-02-26T09:26:43.650Z,1.45
2023-02-26T09:29:11.511Z,1.38
2023-02-26T09:31:38.749Z,2.15
2023-02-26T09:34:06.002Z,2.63
2023-02-26T09:36:33.232Z,2.72
2023-02-26T09:39:00.879Z,0.97
2023-02-26T09:41:48.377Z,1.95
2023-02-26T09:44:20.240Z,2.30
2023-02-26T09:46:53.392Z,2.25
2023-02-26T09:49:29.440Z,2.05
2023-02-26T09:51:58.541Z,1.50
2023-02-26T09:54:26.758Z,2.25
2023-02-26T09:56:54.340Z,2.38
2023-02-26T09:59:21.513Z,1.85
2023-02-26T10:01:55.004Z,1.70
2023-02-26T10:04:41.030Z,1.93
2023-02-26T10:07:11.188Z,1.02
2023-02-26T10:09:51.119Z,1.48
2023-02-26T10:12:19.220Z,1.10
2023-02-26T10:15:05.437Z,1.67
2023-02-26T10:17:51.331Z,2.13
2023-02-26T10:20:25.840Z,1.38
2023-02-26T10:22:59.307Z,0.85
2023-02-26T10:25:41.500Z,0.80
2023-02-26T10:28:28.423Z,2.70
2023-02-26T10:30:58.188Z,2.03
2023-02-26T10:33:29.608Z,0.97
2023-02-26T10:35:59.406Z,2.50
2023-02-26T10:38:27.469Z,1.60
2023-02-26T10:40:57.700Z,3.00
2023-02-26T10:43:41.295Z,2.80
2023-02-26T10:46:08.422Z,2.20
2023-02-26T10:48:53.509Z,1.48
2023-02-26T10:51:21.345Z,1.15
2023-02-26T10:53:50.039Z,1.65
2023-02-26T10:56:25.152Z,1.80
2023-02-26T10:58:52.312Z,0.32
2023-02-26T11:01:20.172Z,1.50
2023-02-26T11:03:48.420Z,2.65
2023-02-26T11:06:20.579Z,0.60
2023-02-26T11:08:48.945Z,1.10
2023-02-26T11:11:35.244Z,0.55
2023-02-26T11:14:02.588Z,1.20
2023-02-26T11:16:29.823Z,3.10
2023-02-26T11:18:57.151Z,2.28
2023-02-26T11:21:28.274Z,1.00
2023-02-26T11:23:59.925Z,1.17
2023-02-26T11:26:27.524Z,2.85
2023-02-26T11:28:55.345Z,3.20
2023-02-26T11:31:24.137Z,2.10
2023-02-26T11:33:58.300Z,1.60
2023-02-26T11:36:27.138Z,1.42
2023-02-26T11:38:56.042Z,0.85
2023-02-26T11:41:23.960Z,1.90
2023-02-26T11:43:57.586Z,1.98
2023-02-26T11:46:25.132Z,1.98
2023-02-26T11:48:52.369Z,1.45
2023-02-26T11:51:23.940Z,1.13
2023-02-26T11:54:02.111Z,1.15
2023-02-26T11:56:34.219Z,1.35
2023-02-26T11:59:03.258Z,1.17
2023-02-26T12:01:30.427Z,1.63
2023-02-26T12:03:59.272Z,1.35
2023-02-26T12:06:26.461Z,2.35
2023-02-26T12:08:54.133Z,1.85
2023-02-26T12:11:41.100Z,3.00
2023-02-26T12:14:11.372Z,3.08
2023-02-26T12:16:41.685Z,1.40
2023-02-26T12:19:17.887Z,1.67
2023-02-26T12:22:03.880Z,1.70
2023-02-26T12:24:49.576Z,2.17
2023-02-26T12:27:35.650Z,1.85
2023-02-26T12:30:21.240Z,4.72
2023-02-26T12:33:13.168Z,13.75
2023-02-26T12:35:43.595Z,3.10
2023-02-26T12:38:15.302Z,11.20
2023-02-26T12:40:48.688Z,4.07
2023-02-26T12:43:16.485Z,4.22
2023-02-26T12:45:55.822Z,2.03
2023-02-26T12:48:25.983Z,1.70
2023-02-26T12:51:09.375Z,3.22
2023-02-26T12:53:56.846Z,1.13
2023-02-26T12:56:30.160Z,2.10
2023-02-26T12:59:01.029Z,1.20
2023-02-26T13:01:59.686Z,1.25
2023-02-26T13:04:41.947Z,1.85
2023-02-26T13:07:27.866Z,1.90
2023-02-26T13:09:55.716Z,1.93
2023-02-26T13:12:29.157Z,0.90
2023-02-26T13:15:25.699Z,3.60
2023-02-26T13:17:52.953Z,3.55
2023-02-26T13:20:21.543Z,4.68
2023-02-26T13:22:49.545Z,3.05
2023-02-26T13:25:24.749Z,2.55
2023-02-26T13:27:53.577Z,8.63
2023-02-26T13:30:32.288Z,4.53
2023-02-26T13:33:02.978Z,6.75
2023-02-26T13:35:38.227Z,4.43
2023-02-26T13:38:15.205Z,2.60
2023-02-26T13:40:51.879Z,6.28
2023-02-26T13:43:38.159Z,3.35
2023-02-26T13:46:23.736Z,2.35
2023-02-26T13:48:54.004Z,1.20
2023-02-26T13:51:24.325Z,1.48
2023-02-26T13:54:05.707Z,2.10
2023-02-26T13:56:32.970Z,2.90
2023-02-26T13:59:19.574Z,1.60
2023-02-26T14:01:50.413Z,1.63
2023-02-26T14:04:22.296Z,2.83
2023-02-26T14:06:50.304Z,3.25
2023-02-26T14:09:37.831Z,2.63
2023-02-26T14:12:05.868Z,3.92
2023-02-26T14:14:36.137Z,2.10
2023-02-26T14:17:09.272Z,1.27
2023-02-26T14:19:39.593Z,2.65
2023-02-26T14:22:23.794Z,2.80
2023-02-26T14:24:55.081Z,1.58
2023-02-26T14:27:23.804Z,1.77
2023-02-26T14:29:56.762Z,2.10
2023-02-26T14:32:28.521Z,2.75
2023-02-26T14:34:57.661Z,4.75
2023-02-26T14:37:25.857Z,3.25
2023-02-26T14:40:00.398Z,4.90
2023-02-26T14:42:38.804Z,3.90
2023-02-26T14:45:09.561Z,6.40
2023-02-26T14:47:37.127Z,4.33
2023-02-26T14:50:04.473Z,8.63
2023-02-26T14:52:50.445Z,5.90
2023-02-26T14:55:36.204Z,2.93
2023-02-26T14:58:04.453Z,6.18
2023-02-26T15:00:31.766Z,5.30
2023-02-26T15:03:09.856Z,2.75
2023-02-26T15:05:41.125Z,4.68
2023-02-26T15:08:08.277Z,5.10
2023-02-26T15:10:40.110Z,3.70
2023-02-26T15:13:14.795Z,2.47
2023-02-26T15:15:42.009Z,3.63
2023-02-26T15:18:35.450Z,2.50
2023-02-26T15:21:20.900Z,1.30
2023-02-26T15:23:57.660Z,1.83
2023-02-26T15:26:29.362Z,2.40
2023-02-26T15:28:57.017Z,1.70
2023-02-26T15:31:37.301Z,1.63
2023-02-26T15:34:04.543Z,2.03
2023-02-26T15:36:32.002Z,3.38
2023-02-26T15:39:03.908Z,4.57
2023-02-26T15:41:31.469Z,4.18
2023-02-26T15:44:02.471Z,5.25
2023-02-26T15:46:30.987Z,5.60
2023-02-26T15:49:00.003Z,17.85
2023-02-26T15:51:27.244Z,12.00
2023-02-26T15:53:55.326Z,9.38
2023-02-26T15:56:24.489Z,4.28
2023-02-26T15:59:01.872Z,9.60
2023-02-26T16:01:29.538Z,6.07
2023-02-26T16:04:03.657Z,9.55
2023-02-26T16:06:31.646Z,11.07
2023-02-26T16:09:00.082Z,10.93
2023-02-26T16:11:29.388Z,6.57
2023-02-26T16:13:56.696Z,6.20
2023-02-26T16:16:28.463Z,7.85
2023-02-26T16:18:56.170Z,11.85
2023-02-26T16:21:25.576Z,15.23
2023-02-26T16:23:53.832Z,17.52
2023-02-26T16:26:27.661Z,27.55
2023-02-26T16:28:57.756Z,8.15
2023-02-26T16:31:25.761Z,8.02
2023-02-26T16:34:03.009Z,11.43
2023-02-26T16:36:37.122Z,8.07
2023-02-26T16:39:07.882Z,8.60
2023-02-26T16:41:35.872Z,11.25
2023-02-26T16:44:11.178Z,12.02
2023-02-26T16:46:42.851Z,11.23
2023-02-26T16:49:21.874Z,7.00
2023-02-26T16:51:49.195Z,8.35
2023-02-26T16:54:18.209Z,8.15
2023-02-26T16:56:45.687Z,6.10
2023-02-26T16:59:14.051Z,4.75
2023-02-26T17:01:44.191Z,13.77
2023-02-26T17:04:11.491Z,10.30
2023-02-26T17:06:39.859Z,5.43
2023-02-26T17:09:10.380Z,4.07
2023-02-26T17:11:44.374Z,6.43
2023-02-26T17:14:15.471Z,3.85
2023-02-26T17:16:42.646Z,12.35
2023-02-26T17:19:09.835Z,9.13
2023-02-26T17:21:38.550Z,5.05
2023-02-26T17:24:05.771Z,8.55
2023-02-26T17:26:33.128Z,18.27
2023-02-26T17:29:00.306Z,24.67
2023-02-26T17:31:28.074Z,18.02
2023-02-26T17:33:55.548Z,23.90
2023-02-26T17:36:22.918Z,20.42
2023-02-26T17:38:50.466Z,12.43
2023-02-26T17:41:18.425Z,7.00
2023-02-26T17:43:45.697Z,7.38
2023-02-26T17:46:13.174Z,6.80
2023-02-26T17:48:40.495Z,5.43
2023-02-26T17:51:07.671Z,3.50
2023-02-26T17:53:40.917Z,1.98
2023-02-26T17:56:11.770Z,2.50
2023-02-26T17:58:39.494Z,2.88
2023-02-26T18:01:08.009Z,3.35
2023-02-26T18:03:35.272Z,2.60
2023-02-26T18:06:02.535Z,2.42
2023-02-26T18:08:30.505Z,2.97
2023-02-26T18:10:57.892Z,2.55
2023-02-26T18:13:25.167Z,2.22
2023-02-26T18:15:52.385Z,4.03
2023-02-26T18:18:19.552Z,5.10
2023-02-26T18:20:47.455Z,8.23
2023-02-26T18:23:17.484Z,7.88
2023-02-26T18:25:45.502Z,7.35
2023-02-26T18:28:20.402Z,3.77
2023-02-26T18:30:48.239Z,3.28
2023-02-26T18:33:17.079Z,2.63
2023-02-26T18:35:48.238Z,2.73
2023-02-26T18:38:18.279Z,2.30
2023-02-26T18:40:45.792Z,3.90
2023-02-26T18:43:13.312Z,3.40
2023-02-26T18:45:40.975Z,2.83
2023-02-26T18:48:09.283Z,3.38
2023-02-26T18:50:36.610Z,3.07
2023-02-26T18:53:04.194Z,2.08
2023-02-26T18:55:31.571Z,4.13
2023-02-26T18:57:59.568Z,8.13
2023-02-26T19:00:29.042Z,4.13
2023-02-26T19:02:56.354Z,2.50
2023-02-26T19:05:24.801Z,4.67
2023-02-26T19:07:52.636Z,11.18
2023-02-26T19:10:22.416Z,13.18
2023-02-26T19:12:51.063Z,11.75
2023-02-26T19:15:18.808Z,8.02
2023-02-26T19:17:47.127Z,11.15
2023-02-26T19:20:14.591Z,9.85
2023-02-26T19:22:42.098Z,8.80
2023-02-26T19:25:10.506Z,7.82
2023-02-26T19:27:40.188Z,6.40
2023-02-26T19:30:08.588Z,7.75
2023-02-26T19:32:36.655Z,5.43
2023-02-26T19:35:03.962Z,5.50
2023-02-26T19:37:31.286Z,8.07
2023-02-26T19:39:58.493Z,6.20
2023-02-26T19:42:28.293Z,9.10
2023-02-26T19:44:55.525Z,4.43
2023-02-26T19:47:23.519Z,2.95
2023-02-26T19:49:50.738Z,3.38
2023-02-26T19:52:17.941Z,3.45
2023-02-26T19:54:45.159Z,4.68
2023-02-26T19:57:13.144Z,4.25
2023-02-26T19:59:40.504Z,3.75
2023-02-26T20:02:07.938Z,3.25
2023-02-26T20:04:35.288Z,3.00
2023-02-26T20:07:02.427Z,2.93
2023-02-26T20:09:29.592Z,4.57
2023-02-26T20:11:56.781Z,3.67
2023-02-26T20:14:23.982Z,2.90
2023-02-26T20:16:51.442Z,4.60
2023-02-26T20:19:18.583Z,5.82
2023-02-26T20:21:45.846Z,2.55
2023-02-26T20:24:13.030Z,4.78
2023-02-26T20:26:40.248Z,2.80
2023-02-26T20:29:07.781Z,3.00
2023-02-26T20:31:35.042Z,3.60
2023-02-26T20:34:02.577Z,2.40
2023-02-26T20:36:29.719Z,3.42
2023-02-26T20:38:56.938Z,2.78
2023-02-26T20:41:24.353Z,3.95
2023-02-26T20:43:51.792Z,3.50
2023-02-26T20:46:19.106Z,3.70
2023-02-26T20:48:46.375Z,2.07
2023-02-26T20:51:14.984Z,3.07
2023-02-26T20:53:42.771Z,4.07
2023-02-26T20:56:10.010Z,3.17
2023-02-26T20:58:39.181Z,5.25
2023-02-26T21:01:06.373Z,5.07
2023-02-26T21:03:33.555Z,5.50
2023-02-26T21:06:00.717Z,5.07
2023-02-26T21:08:27.914Z,6.93
2023-02-26T21:10:55.056Z,6.35
2023-02-26T21:13:22.288Z,7.13
2023-02-26T21:15:50.310Z,5.03
2023-02-26T21:18:17.556Z,5.20
2023-02-26T21:20:44.689Z,3.63
2023-02-26T21:23:11.867Z,5.90
2023-02-26T21:25:40.072Z,5.83
2023-02-26T21:28:07.401Z,6.20
2023-02-26T21:30:34.630Z,10.75
2023-02-26T21:33:01.831Z,9.88
2023-02-26T21:35:29.055Z,8.38
2023-02-26T21:37:56.229Z,6.93
2023-02-26T21:40:24.927Z,12.63
2023-02-26T21:42:52.209Z,20.10
2023-02-26T21:45:19.464Z,19.27
2023-02-26T21:47:46.593Z,16.87
2023-02-26T21:50:14.486Z,12.47
2023-02-26T21:52:41.765Z,10.30
2023-02-26T21:55:09.269Z,7.13
2023-02-26T21:57:36.658Z,5.68
2023-02-26T22:00:06.296Z,4.55
2023-02-26T22:02:33.536Z,4.30
2023-02-26T22:05:00.826Z,6.25
2023-02-26T22:07:28.182Z,3.97
2023-02-26T22:09:55.547Z,4.18
2023-02-26T22:12:22.854Z,4.32
2023-02-26T22:14:50.036Z,3.05
2023-02-26T22:17:17.239Z,4.57
2023-02-26T22:19:44.487Z,4.45
2023-02-26T22:22:11.627Z,3.88
2023-02-26T22:24:40.961Z,4.43
2023-02-26T22:27:08.181Z,4.22
2023-02-26T22:29:35.471Z,7.25
2023-02-26T22:32:02.785Z,2.95
2023-02-26T22:34:33.170Z,2.33
2023-02-26T22:37:00.998Z,4.10
2023-02-26T22:39:28.212Z,3.50
2023-02-26T22:41:55.472Z,3.80
2023-02-26T22:44:22.660Z,2.53
2023-02-26T22:46:50.104Z,3.37
2023-02-26T22:49:18.564Z,4.10
2023-02-26T22:51:46.263Z,4.95
2023-02-26T22:54:13.400Z,5.20
2023-02-26T22:56:40.986Z,2.80
2023-02-26T22:59:08.245Z,2.65
2023-02-26T23:01:35.423Z,3.20
2023-02-26T23:04:02.699Z,3.25
2023-02-26T23:06:29.920Z,4.03
2023-02-26T23:08:57.063Z,3.40
2023-02-26T23:11:24.546Z,4.45
2023-02-26T23:13:52.024Z,4.07
2023-02-26T23:16:19.216Z,3.08
2023-02-26T23:18:48.102Z,2.95
2023-02-26T23:21:15.373Z,5.00
2023-02-26T23:23:43.924Z,3.08
2023-02-26T23:26:11.155Z,3.20
2023-02-26T23:28:38.325Z,3.50
2023-02-26T23:31:05.717Z,2.33
2023-02-26T23:33:33.093Z,4.73
2023-02-26T23:36:00.629Z,4.43
2023-02-26T23:38:27.816Z,4.55
2023-02-26T23:40:56.780Z,3.85
2023-02-26T23:43:24.055Z,2.33
2023-02-26T23:45:51.261Z,5.20
2023-02-26T23:48:18.678Z,4.13
2023-02-26T23:50:46.827Z,1.70
2023-02-26T23:53:13.999Z,4.32
2023-02-26T23:55:41.122Z,3.75
2023-02-26T23:58:08.276Z,2.95
